sensor_id;sensor_type;location;lat;lon;timestamp;temperature;humidity
32769;DHT22;23049;54.304;8.826;2022-12-07T00:02:17;2.90;99.90
32769;DHT22;23049;54.304;8.826;2022-12-07T00:04:42;2.90;99.90
32769;DHT22;23049;54.304;8.826;2022-12-07T00:07:08;2.90;99.90
32769;DHT22;23049;54.304;8.826;2022-12-07T00:09:33;3.00;99.90
32769;DHT22;23049;54.304;8.826;2022-12-07T00:11:59;2.90;99.90
32769;DHT22;23049;54.304;8.826;2022-12-07T00:14:24;2.90;99.90
32769;DHT22;23049;54.304;8.826;2022-12-07T00:16:50;2.90;99.90
32769;DHT22;23049;54.304;8.826;2022-12-07T00:19:16;2.90;99.90
32769;DHT22;23049;54.304;8.826;2022-12-07T00:21:42;2.90;99.90
32769;DHT22;23049;54.304;8.826;2022-12-07T00:24:07;2.90;99.90
32769;DHT22;23049;54.304;8.826;2022-12-07T00:26:35;2.90;99.90
32769;DHT22;23049;54.304;8.826;2022-12-07T00:29:04;2.90;99.90
32769;DHT22;23049;54.304;8.826;2022-12-07T00:31:34;3.00;99.90
32769;DHT22;23049;54.304;8.826;2022-12-07T00:34:04;2.90;99.90
32769;DHT22;23049;54.304;8.826;2022-12-07T00:36:29;2.90;99.90
32769;DHT22;23049;54.304;8.826;2022-12-07T00:38:56;2.80;99.90
32769;DHT22;23049;54.304;8.826;2022-12-07T00:41:23;2.90;99.90
32769;DHT22;23049;54.304;8.826;2022-12-07T00:43:49;2.90;99.90
32769;DHT22;23049;54.304;8.826;2022-12-07T00:46:15;2.80;99.90
32769;DHT22;23049;54.304;8.826;2022-12-07T00:48:41;2.90;99.90
32769;DHT22;23049;54.304;8.826;2022-12-07T00:51:06;2.90;99.90
32769;DHT22;23049;54.304;8.826;2022-12-07T00:53:35;2.90;99.90
32769;DHT22;23049;54.304;8.826;2022-12-07T00:56:04;2.90;99.90
32769;DHT22;23049;54.304;8.826;2022-12-07T00:58:30;2.90;99.90
32769;DHT22;23049;54.304;8.826;2022-12-07T01:00:55;2.90;99.90
32769;DHT22;23049;54.304;8.826;2022-12-07T01:03:24;2.90;99.90
32769;DHT22;23049;54.304;8.826;2022-12-07T01:05:53;2.90;99.90
32769;DHT22;23049;54.304;8.826;2022-12-07T01:08:19;2.90;99.90
32769;DHT22;23049;54.304;8.826;2022-12-07T01:10:45;3.00;99.90
32769;DHT22;23049;54.304;8.826;2022-12-07T01:13:11;2.90;99.90
32769;DHT22;23049;54.304;8.826;2022-12-07T01:15:40;2.90;99.90
32769;DHT22;23049;54.304;8.826;2022-12-07T01:18:05;2.90;99.90
32769;DHT22;23049;54.304;8.826;2022-12-07T01:20:31;2.90;99.90
32769;DHT22;23049;54.304;8.826;2022-12-07T01:22:56;2.90;99.90
32769;DHT22;23049;54.304;8.826;2022-12-07T01:25:22;2.90;99.90
32769;DHT22;23049;54.304;8.826;2022-12-07T01:27:47;2.90;99.90
32769;DHT22;23049;54.304;8.826;2022-12-07T01:30:13;2.80;99.90
32769;DHT22;23049;54.304;8.826;2022-12-07T01:32:39;2.80;99.90
32769;DHT22;23049;54.304;8.826;2022-12-07T01:35:04;2.80;99.90
32769;DHT22;23049;54.304;8.826;2022-12-07T01:37:34;2.80;99.90
32769;DHT22;23049;54.304;8.826;2022-12-07T01:39:59;2.70;99.90
32769;DHT22;23049;54.304;8.826;2022-12-07T01:42:25;2.60;99.90
32769;DHT22;23049;54.304;8.826;2022-12-07T01:47:36;2.60;99.90
32769;DHT22;23049;54.304;8.826;2022-12-07T01:50:02;2.50;99.90
32769;DHT22;23049;54.304;8.826;2022-12-07T01:52:29;2.40;99.90
32769;DHT22;23049;54.304;8.826;2022-12-07T01:54:59;2.40;99.90
32769;DHT22;23049;54.304;8.826;2022-12-07T01:57:25;2.30;99.90
32769;DHT22;23049;54.304;8.826;2022-12-07T01:59:51;2.30;99.90
32769;DHT22;23049;54.304;8.826;2022-12-07T02:02:27;2.20;99.90
32769;DHT22;23049;54.304;8.826;2022-12-07T02:04:55;2.10;99.90
32769;DHT22;23049;54.304;8.826;2022-12-07T02:07:22;2.10;99.90
32769;DHT22;23049;54.304;8.826;2022-12-07T02:09:48;2.10;99.90
32769;DHT22;23049;54.304;8.826;2022-12-07T02:12:14;2.10;99.90
32769;DHT22;23049;54.304;8.826;2022-12-07T02:14:39;2.00;99.90
32769;DHT22;23049;54.304;8.826;2022-12-07T02:17:18;1.90;99.90
32769;DHT22;23049;54.304;8.826;2022-12-07T02:30:09;1.90;99.90
32769;DHT22;23049;54.304;8.826;2022-12-07T02:32:43;1.80;99.90
32769;DHT22;23049;54.304;8.826;2022-12-07T02:35:15;1.80;99.90
32769;DHT22;23049;54.304;8.826;2022-12-07T02:40:28;1.70;99.90
32769;DHT22;23049;54.304;8.826;2022-12-07T02:43:38;1.70;99.90
32769;DHT22;23049;54.304;8.826;2022-12-07T02:45:43;1.70;99.90
32769;DHT22;23049;54.304;8.826;2022-12-07T02:48:10;1.60;99.90
32769;DHT22;23049;54.304;8.826;2022-12-07T02:50:37;1.70;99.90
32769;DHT22;23049;54.304;8.826;2022-12-07T02:53:02;1.60;99.90
32769;DHT22;23049;54.304;8.826;2022-12-07T02:55:29;1.70;99.90
32769;DHT22;23049;54.304;8.826;2022-12-07T03:03:26;1.90;99.90
32769;DHT22;23049;54.304;8.826;2022-12-07T03:16:05;2.10;99.90
32769;DHT22;23049;54.304;8.826;2022-12-07T03:18:38;2.10;99.90
32769;DHT22;23049;54.304;8.826;2022-12-07T03:21:06;2.10;99.90
32769;DHT22;23049;54.304;8.826;2022-12-07T03:23:34;1.90;99.90
32769;DHT22;23049;54.304;8.826;2022-12-07T03:26:01;1.80;99.90
32769;DHT22;23049;54.304;8.826;2022-12-07T03:28:35;1.80;99.90
32769;DHT22;23049;54.304;8.826;2022-12-07T03:36:39;2.10;99.90
32769;DHT22;23049;54.304;8.826;2022-12-07T03:41:34;2.10;99.90
32769;DHT22;23049;54.304;8.826;2022-12-07T03:44:02;2.20;99.90
32769;DHT22;23049;54.304;8.826;2022-12-07T03:51:43;2.30;99.90
32769;DHT22;23049;54.304;8.826;2022-12-07T03:54:28;2.30;99.90
32769;DHT22;23049;54.304;8.826;2022-12-07T03:56:55;2.30;99.90
32769;DHT22;23049;54.304;8.826;2022-12-07T03:59:21;2.20;99.90
32769;DHT22;23049;54.304;8.826;2022-12-07T04:01:57;2.20;99.90
32769;DHT22;23049;54.304;8.826;2022-12-07T04:04:27;2.20;99.90
32769;DHT22;23049;54.304;8.826;2022-12-07T04:06:53;2.20;99.90
32769;DHT22;23049;54.304;8.826;2022-12-07T04:09:18;2.20;99.90
32769;DHT22;23049;54.304;8.826;2022-12-07T04:11:44;2.10;99.90
32769;DHT22;23049;54.304;8.826;2022-12-07T04:14:10;2.20;99.90
32769;DHT22;23049;54.304;8.826;2022-12-07T04:16:45;2.30;99.90
32769;DHT22;23049;54.304;8.826;2022-12-07T04:19:11;2.40;99.90
32769;DHT22;23049;54.304;8.826;2022-12-07T04:21:37;2.30;99.90
32769;DHT22;23049;54.304;8.826;2022-12-07T04:24:03;2.30;99.90
32769;DHT22;23049;54.304;8.826;2022-12-07T04:26:28;2.30;99.90
32769;DHT22;23049;54.304;8.826;2022-12-07T04:28:54;2.30;99.90
32769;DHT22;23049;54.304;8.826;2022-12-07T04:31:19;2.20;99.90
32769;DHT22;23049;54.304;8.826;2022-12-07T04:33:45;2.20;99.90
32769;DHT22;23049;54.304;8.826;2022-12-07T04:36:10;2.30;99.90
32769;DHT22;23049;54.304;8.826;2022-12-07T04:38:36;2.40;99.90
32769;DHT22;23049;54.304;8.826;2022-12-07T04:41:08;2.40;99.90
32769;DHT22;23049;54.304;8.826;2022-12-07T04:43:34;2.30;99.90
32769;DHT22;23049;54.304;8.826;2022-12-07T04:46:00;2.20;99.90
32769;DHT22;23049;54.304;8.826;2022-12-07T04:48:25;2.20;99.90
32769;DHT22;23049;54.304;8.826;2022-12-07T04:50:51;2.20;99.90
32769;DHT22;23049;54.304;8.826;2022-12-07T04:53:16;2.10;99.90
32769;DHT22;23049;54.304;8.826;2022-12-07T04:55:42;2.10;99.90
32769;DHT22;23049;54.304;8.826;2022-12-07T04:58:08;2.10;99.90
32769;DHT22;23049;54.304;8.826;2022-12-07T05:00:33;2.10;99.90
32769;DHT22;23049;54.304;8.826;2022-12-07T05:02:58;2.20;99.90
32769;DHT22;23049;54.304;8.826;2022-12-07T05:05:24;2.20;99.90
32769;DHT22;23049;54.304;8.826;2022-12-07T05:07:50;2.20;99.90
32769;DHT22;23049;54.304;8.826;2022-12-07T05:10:15;2.30;99.90
32769;DHT22;23049;54.304;8.826;2022-12-07T05:12:41;2.40;99.90
32769;DHT22;23049;54.304;8.826;2022-12-07T05:15:06;2.40;99.90
32769;DHT22;23049;54.304;8.826;2022-12-07T05:17:32;2.50;99.90
32769;DHT22;23049;54.304;8.826;2022-12-07T05:19:58;2.50;99.90
32769;DHT22;23049;54.304;8.826;2022-12-07T05:22:23;2.50;99.90
32769;DHT22;23049;54.304;8.826;2022-12-07T05:24:53;2.50;99.90
32769;DHT22;23049;54.304;8.826;2022-12-07T05:27:19;2.40;99.90
32769;DHT22;23049;54.304;8.826;2022-12-07T05:29:45;2.50;99.90
32769;DHT22;23049;54.304;8.826;2022-12-07T05:32:10;2.40;99.90
32769;DHT22;23049;54.304;8.826;2022-12-07T05:34:36;2.40;99.90
32769;DHT22;23049;54.304;8.826;2022-12-07T05:37:01;2.40;99.90
32769;DHT22;23049;54.304;8.826;2022-12-07T05:39:27;2.30;99.90
32769;DHT22;23049;54.304;8.826;2022-12-07T05:41:52;2.30;99.90
32769;DHT22;23049;54.304;8.826;2022-12-07T05:44:36;2.30;99.90
32769;DHT22;23049;54.304;8.826;2022-12-07T05:47:02;2.40;99.90
32769;DHT22;23049;54.304;8.826;2022-12-07T05:49:27;2.40;99.90
32769;DHT22;23049;54.304;8.826;2022-12-07T05:51:53;2.30;99.90
32769;DHT22;23049;54.304;8.826;2022-12-07T05:54:18;2.30;99.90
32769;DHT22;23049;54.304;8.826;2022-12-07T05:56:44;2.30;99.90
32769;DHT22;23049;54.304;8.826;2022-12-07T05:59:09;2.30;99.90
32769;DHT22;23049;54.304;8.826;2022-12-07T06:01:59;2.30;99.90
32769;DHT22;23049;54.304;8.826;2022-12-07T06:04:26;2.10;99.90
32769;DHT22;23049;54.304;8.826;2022-12-07T06:06:51;2.10;99.90
32769;DHT22;23049;54.304;8.826;2022-12-07T06:09:17;2.00;99.90
32769;DHT22;23049;54.304;8.826;2022-12-07T06:11:43;2.00;99.90
32769;DHT22;23049;54.304;8.826;2022-12-07T06:14:28;2.10;99.90
32769;DHT22;23049;54.304;8.826;2022-12-07T06:16:53;2.30;99.90
32769;DHT22;23049;54.304;8.826;2022-12-07T06:19:19;2.30;99.90
32769;DHT22;23049;54.304;8.826;2022-12-07T06:21:44;2.40;99.90
32769;DHT22;23049;54.304;8.826;2022-12-07T06:24:11;2.40;99.90
32769;DHT22;23049;54.304;8.826;2022-12-07T06:26:36;2.40;99.90
32769;DHT22;23049;54.304;8.826;2022-12-07T06:29:02;2.40;99.90
32769;DHT22;23049;54.304;8.826;2022-12-07T06:31:27;2.40;99.90
32769;DHT22;23049;54.304;8.826;2022-12-07T06:33:57;2.40;99.90
32769;DHT22;23049;54.304;8.826;2022-12-07T06:36:22;2.30;99.90
32769;DHT22;23049;54.304;8.826;2022-12-07T06:38:48;2.30;99.90
32769;DHT22;23049;54.304;8.826;2022-12-07T06:41:13;2.30;99.90
32769;DHT22;23049;54.304;8.826;2022-12-07T06:43:39;2.20;99.90
32769;DHT22;23049;54.304;8.826;2022-12-07T06:46:05;2.10;99.90
32769;DHT22;23049;54.304;8.826;2022-12-07T06:48:30;2.10;99.90
32769;DHT22;23049;54.304;8.826;2022-12-07T06:50:56;2.10;99.90
32769;DHT22;23049;54.304;8.826;2022-12-07T06:53:22;2.10;99.90
32769;DHT22;23049;54.304;8.826;2022-12-07T06:55:47;2.30;99.90
32769;DHT22;23049;54.304;8.826;2022-12-07T06:58:13;2.40;99.90
32769;DHT22;23049;54.304;8.826;2022-12-07T07:00:39;2.40;99.90
32769;DHT22;23049;54.304;8.826;2022-12-07T07:03:04;2.40;99.90
32769;DHT22;23049;54.304;8.826;2022-12-07T07:05:30;2.50;99.90
32769;DHT22;23049;54.304;8.826;2022-12-07T07:07:55;2.40;99.90
32769;DHT22;23049;54.304;8.826;2022-12-07T07:10:21;2.40;99.90
32769;DHT22;23049;54.304;8.826;2022-12-07T07:12:46;2.40;99.90
32769;DHT22;23049;54.304;8.826;2022-12-07T07:15:12;2.30;99.90
32769;DHT22;23049;54.304;8.826;2022-12-07T07:17:37;2.30;99.90
32769;DHT22;23049;54.304;8.826;2022-12-07T07:20:03;2.30;99.90
32769;DHT22;23049;54.304;8.826;2022-12-07T07:22:29;2.40;99.90
32769;DHT22;23049;54.304;8.826;2022-12-07T07:24:54;2.40;99.90
32769;DHT22;23049;54.304;8.826;2022-12-07T07:27:20;2.40;99.90
32769;DHT22;23049;54.304;8.826;2022-12-07T07:29:45;2.50;99.90
32769;DHT22;23049;54.304;8.826;2022-12-07T07:32:11;2.50;99.90
32769;DHT22;23049;54.304;8.826;2022-12-07T07:34:37;2.50;99.90
32769;DHT22;23049;54.304;8.826;2022-12-07T07:37:03;2.50;99.90
32769;DHT22;23049;54.304;8.826;2022-12-07T07:39:28;2.50;99.90
32769;DHT22;23049;54.304;8.826;2022-12-07T07:41:54;2.50;99.90
32769;DHT22;23049;54.304;8.826;2022-12-07T07:44:19;2.50;99.90
32769;DHT22;23049;54.304;8.826;2022-12-07T07:46:45;2.50;99.90
32769;DHT22;23049;54.304;8.826;2022-12-07T07:49:10;2.50;99.90
32769;DHT22;23049;54.304;8.826;2022-12-07T07:51:36;2.40;99.90
32769;DHT22;23049;54.304;8.826;2022-12-07T07:54:02;2.50;99.90
32769;DHT22;23049;54.304;8.826;2022-12-07T07:56:27;2.60;99.90
32769;DHT22;23049;54.304;8.826;2022-12-07T07:58:53;2.50;99.90
32769;DHT22;23049;54.304;8.826;2022-12-07T08:01:18;2.50;99.90
32769;DHT22;23049;54.304;8.826;2022-12-07T08:03:47;2.50;99.90
32769;DHT22;23049;54.304;8.826;2022-12-07T08:06:12;2.50;99.90
32769;DHT22;23049;54.304;8.826;2022-12-07T08:08:38;2.60;99.90
32769;DHT22;23049;54.304;8.826;2022-12-07T08:11:07;2.60;99.90
32769;DHT22;23049;54.304;8.826;2022-12-07T08:13:33;2.70;99.90
32769;DHT22;23049;54.304;8.826;2022-12-07T08:15:58;2.80;99.90
32769;DHT22;23049;54.304;8.826;2022-12-07T08:18:24;2.80;99.90
32769;DHT22;23049;54.304;8.826;2022-12-07T08:20:49;2.80;99.90
32769;DHT22;23049;54.304;8.826;2022-12-07T08:23:14;2.80;99.90
32769;DHT22;23049;54.304;8.826;2022-12-07T08:25:40;2.90;99.90
32769;DHT22;23049;54.304;8.826;2022-12-07T08:28:06;2.90;99.90
32769;DHT22;23049;54.304;8.826;2022-12-07T08:30:31;2.90;99.90
32769;DHT22;23049;54.304;8.826;2022-12-07T08:32:57;2.90;99.90
32769;DHT22;23049;54.304;8.826;2022-12-07T08:35:23;3.00;99.90
32769;DHT22;23049;54.304;8.826;2022-12-07T08:37:48;2.80;99.90
32769;DHT22;23049;54.304;8.826;2022-12-07T08:40:14;2.80;99.90
32769;DHT22;23049;54.304;8.826;2022-12-07T08:42:43;2.80;99.90
32769;DHT22;23049;54.304;8.826;2022-12-07T08:45:11;2.70;99.90
32769;DHT22;23049;54.304;8.826;2022-12-07T08:47:38;2.80;99.90
32769;DHT22;23049;54.304;8.826;2022-12-07T08:50:05;2.80;99.90
32769;DHT22;23049;54.304;8.826;2022-12-07T08:52:32;2.80;99.90
32769;DHT22;23049;54.304;8.826;2022-12-07T08:54:58;2.70;99.90
32769;DHT22;23049;54.304;8.826;2022-12-07T08:57:25;2.80;99.90
32769;DHT22;23049;54.304;8.826;2022-12-07T08:59:51;2.80;99.90
32769;DHT22;23049;54.304;8.826;2022-12-07T09:02:17;2.80;99.90
32769;DHT22;23049;54.304;8.826;2022-12-07T09:04:42;2.80;99.90
32769;DHT22;23049;54.304;8.826;2022-12-07T09:07:08;2.80;99.90
32769;DHT22;23049;54.304;8.826;2022-12-07T09:09:34;2.90;99.90
32769;DHT22;23049;54.304;8.826;2022-12-07T09:11:59;3.10;99.90
32769;DHT22;23049;54.304;8.826;2022-12-07T09:14:25;3.00;99.90
32769;DHT22;23049;54.304;8.826;2022-12-07T09:16:50;3.00;99.90
32769;DHT22;23049;54.304;8.826;2022-12-07T09:19:19;3.00;99.90
32769;DHT22;23049;54.304;8.826;2022-12-07T09:21:44;3.00;99.90
32769;DHT22;23049;54.304;8.826;2022-12-07T09:24:11;3.00;99.90
32769;DHT22;23049;54.304;8.826;2022-12-07T09:26:36;3.10;99.90
32769;DHT22;23049;54.304;8.826;2022-12-07T09:29:04;3.00;99.90
32769;DHT22;23049;54.304;8.826;2022-12-07T09:31:30;3.10;99.90
32769;DHT22;23049;54.304;8.826;2022-12-07T09:33:59;3.10;99.90
32769;DHT22;23049;54.304;8.826;2022-12-07T09:36:25;3.20;99.90
32769;DHT22;23049;54.304;8.826;2022-12-07T09:38:51;3.20;99.90
32769;DHT22;23049;54.304;8.826;2022-12-07T09:41:17;3.10;99.90
32769;DHT22;23049;54.304;8.826;2022-12-07T09:43:43;3.20;99.90
32769;DHT22;23049;54.304;8.826;2022-12-07T09:46:09;3.10;99.90
32769;DHT22;23049;54.304;8.826;2022-12-07T09:48:39;3.10;99.90
32769;DHT22;23049;54.304;8.826;2022-12-07T09:53:39;3.10;99.90
32769;DHT22;23049;54.304;8.826;2022-12-07T09:56:05;3.20;99.90
32769;DHT22;23049;54.304;8.826;2022-12-07T09:58:30;3.20;99.90
32769;DHT22;23049;54.304;8.826;2022-12-07T10:00:58;3.20;99.90
32769;DHT22;23049;54.304;8.826;2022-12-07T10:03:26;3.30;99.90
32769;DHT22;23049;54.304;8.826;2022-12-07T10:05:51;3.30;99.90
32769;DHT22;23049;54.304;8.826;2022-12-07T10:08:17;3.30;99.90
32769;DHT22;23049;54.304;8.826;2022-12-07T10:10:44;3.30;99.90
32769;DHT22;23049;54.304;8.826;2022-12-07T10:18:32;3.50;99.90
32769;DHT22;23049;54.304;8.826;2022-12-07T10:21:11;3.50;99.90
32769;DHT22;23049;54.304;8.826;2022-12-07T10:23:37;3.60;99.90
32769;DHT22;23049;54.304;8.826;2022-12-07T10:29:13;3.80;99.90
32769;DHT22;23049;54.304;8.826;2022-12-07T10:31:40;3.80;99.90
32769;DHT22;23049;54.304;8.826;2022-12-07T10:34:14;3.90;99.90
32769;DHT22;23049;54.304;8.826;2022-12-07T10:36:45;3.90;99.90
32769;DHT22;23049;54.304;8.826;2022-12-07T10:39:12;3.90;99.90
32769;DHT22;23049;54.304;8.826;2022-12-07T10:41:58;3.90;99.90
32769;DHT22;23049;54.304;8.826;2022-12-07T10:44:28;3.90;99.90
32769;DHT22;23049;54.304;8.826;2022-12-07T10:47:43;4.00;99.90
32769;DHT22;23049;54.304;8.826;2022-12-07T10:54:46;4.00;99.90
32769;DHT22;23049;54.304;8.826;2022-12-07T10:59:57;4.00;99.90
32769;DHT22;23049;54.304;8.826;2022-12-07T11:02:27;4.00;99.90
32769;DHT22;23049;54.304;8.826;2022-12-07T11:04:59;4.10;99.90
32769;DHT22;23049;54.304;8.826;2022-12-07T11:07:35;4.10;99.90
32769;DHT22;23049;54.304;8.826;2022-12-07T11:15:24;4.10;99.90
32769;DHT22;23049;54.304;8.826;2022-12-07T11:20:29;4.20;99.90
32769;DHT22;23049;54.304;8.826;2022-12-07T11:23:00;4.20;99.90
32769;DHT22;23049;54.304;8.826;2022-12-07T11:25:32;4.20;99.90
32769;DHT22;23049;54.304;8.826;2022-12-07T11:30:42;4.30;99.90
32769;DHT22;23049;54.304;8.826;2022-12-07T11:38:01;4.30;99.90
32769;DHT22;23049;54.304;8.826;2022-12-07T11:40:33;4.30;99.90
32769;DHT22;23049;54.304;8.826;2022-12-07T11:45:55;4.30;99.90
32769;DHT22;23049;54.304;8.826;2022-12-07T11:48:25;4.30;99.90
32769;DHT22;23049;54.304;8.826;2022-12-07T11:50:54;4.30;99.90
32769;DHT22;23049;54.304;8.826;2022-12-07T11:56:16;4.30;99.90
32769;DHT22;23049;54.304;8.826;2022-12-07T11:58:45;4.30;99.90
32769;DHT22;23049;54.304;8.826;2022-12-07T12:03:49;4.30;99.90
32769;DHT22;23049;54.304;8.826;2022-12-07T12:06:16;4.30;99.90
32769;DHT22;23049;54.304;8.826;2022-12-07T12:21:41;4.30;99.90
32769;DHT22;23049;54.304;8.826;2022-12-07T12:24:12;4.30;99.90
32769;DHT22;23049;54.304;8.826;2022-12-07T12:26:41;4.30;99.90
32769;DHT22;23049;54.304;8.826;2022-12-07T12:29:27;4.30;99.90
32769;DHT22;23049;54.304;8.826;2022-12-07T12:32:06;4.30;99.90
32769;DHT22;23049;54.304;8.826;2022-12-07T12:42:45;4.20;99.90
32769;DHT22;23049;54.304;8.826;2022-12-07T12:45:29;4.10;99.90
32769;DHT22;23049;54.304;8.826;2022-12-07T12:47:55;4.10;99.90
32769;DHT22;23049;54.304;8.826;2022-12-07T12:50:37;4.10;99.90
32769;DHT22;23049;54.304;8.826;2022-12-07T12:55:42;4.30;99.90
32769;DHT22;23049;54.304;8.826;2022-12-07T13:03:40;4.30;99.90
32769;DHT22;23049;54.304;8.826;2022-12-07T13:06:38;4.20;99.90
32769;DHT22;23049;54.304;8.826;2022-12-07T13:09:03;4.20;99.90
32769;DHT22;23049;54.304;8.826;2022-12-07T13:11:33;4.10;99.90
32769;DHT22;23049;54.304;8.826;2022-12-07T13:16:44;3.90;99.90
32769;DHT22;23049;54.304;8.826;2022-12-07T13:21:54;3.70;99.90
32769;DHT22;23049;54.304;8.826;2022-12-07T13:24:19;3.70;99.90
32769;DHT22;23049;54.304;8.826;2022-12-07T13:26:45;3.70;99.90
32769;DHT22;23049;54.304;8.826;2022-12-07T13:29:29;3.70;99.90
32769;DHT22;23049;54.304;8.826;2022-12-07T13:31:59;3.60;99.90
32769;DHT22;23049;54.304;8.826;2022-12-07T13:36:57;3.50;99.90
32769;DHT22;23049;54.304;8.826;2022-12-07T13:39:24;3.40;99.90
32769;DHT22;23049;54.304;8.826;2022-12-07T13:41:50;3.40;99.90
32769;DHT22;23049;54.304;8.826;2022-12-07T13:44:17;3.20;99.90
32769;DHT22;23049;54.304;8.826;2022-12-07T13:49:20;3.10;99.90
32769;DHT22;23049;54.304;8.826;2022-12-07T13:51:46;3.00;99.90
32769;DHT22;23049;54.304;8.826;2022-12-07T13:54:12;2.90;99.90
32769;DHT22;23049;54.304;8.826;2022-12-07T13:56:38;2.80;99.90
32769;DHT22;23049;54.304;8.826;2022-12-07T13:59:14;2.70;99.90
32769;DHT22;23049;54.304;8.826;2022-12-07T14:01:41;2.60;99.90
32769;DHT22;23049;54.304;8.826;2022-12-07T14:06:52;2.50;99.90
32769;DHT22;23049;54.304;8.826;2022-12-07T14:09:19;2.40;99.90
32769;DHT22;23049;54.304;8.826;2022-12-07T14:11:46;2.40;99.90
32769;DHT22;23049;54.304;8.826;2022-12-07T14:14:31;2.30;99.90
32769;DHT22;23049;54.304;8.826;2022-12-07T14:22:25;2.00;99.90
32769;DHT22;23049;54.304;8.826;2022-12-07T14:24:51;2.00;99.90
32769;DHT22;23049;54.304;8.826;2022-12-07T14:27:23;2.00;99.90
32769;DHT22;23049;54.304;8.826;2022-12-07T14:29:51;1.90;99.90
32769;DHT22;23049;54.304;8.826;2022-12-07T14:32:21;1.80;99.90
32769;DHT22;23049;54.304;8.826;2022-12-07T14:34:56;1.80;99.90
32769;DHT22;23049;54.304;8.826;2022-12-07T14:37:23;1.70;99.90
32769;DHT22;23049;54.304;8.826;2022-12-07T14:39:48;1.70;99.90
32769;DHT22;23049;54.304;8.826;2022-12-07T14:42:14;1.70;99.90
32769;DHT22;23049;54.304;8.826;2022-12-07T14:44:39;1.70;99.90
32769;DHT22;23049;54.304;8.826;2022-12-07T14:47:05;1.70;99.90
32769;DHT22;23049;54.304;8.826;2022-12-07T14:49:30;1.60;99.90
32769;DHT22;23049;54.304;8.826;2022-12-07T14:51:56;1.50;99.90
32769;DHT22;23049;54.304;8.826;2022-12-07T14:54:21;1.50;99.90
32769;DHT22;23049;54.304;8.826;2022-12-07T14:56:49;1.50;99.90
32769;DHT22;23049;54.304;8.826;2022-12-07T14:59:16;1.50;99.90
32769;DHT22;23049;54.304;8.826;2022-12-07T15:01:42;1.50;99.90
32769;DHT22;23049;54.304;8.826;2022-12-07T15:04:07;1.40;99.90
32769;DHT22;23049;54.304;8.826;2022-12-07T15:06:33;1.40;99.90
32769;DHT22;23049;54.304;8.826;2022-12-07T15:08:59;1.70;99.90
32769;DHT22;23049;54.304;8.826;2022-12-07T15:11:24;1.90;99.90
32769;DHT22;23049;54.304;8.826;2022-12-07T15:13:50;2.00;99.90
32769;DHT22;23049;54.304;8.826;2022-12-07T15:16:34;2.00;99.90
32769;DHT22;23049;54.304;8.826;2022-12-07T15:19:00;2.10;99.90
32769;DHT22;23049;54.304;8.826;2022-12-07T15:21:25;2.20;99.90
32769;DHT22;23049;54.304;8.826;2022-12-07T15:23:51;2.20;99.90
32769;DHT22;23049;54.304;8.826;2022-12-07T15:26:16;2.20;99.90
32769;DHT22;23049;54.304;8.826;2022-12-07T15:28:42;2.20;99.90
32769;DHT22;23049;54.304;8.826;2022-12-07T15:31:11;2.20;99.90
32769;DHT22;23049;54.304;8.826;2022-12-07T15:33:37;2.10;99.90
32769;DHT22;23049;54.304;8.826;2022-12-07T15:36:02;2.00;99.90
32769;DHT22;23049;54.304;8.826;2022-12-07T15:38:28;2.00;99.90
32769;DHT22;23049;54.304;8.826;2022-12-07T15:40:55;1.90;99.90
32769;DHT22;23049;54.304;8.826;2022-12-07T15:43:20;1.90;99.90
32769;DHT22;23049;54.304;8.826;2022-12-07T15:46:04;1.80;99.90
32769;DHT22;23049;54.304;8.826;2022-12-07T15:48:30;1.80;99.90
32769;DHT22;23049;54.304;8.826;2022-12-07T15:51:14;1.80;99.90
32769;DHT22;23049;54.304;8.826;2022-12-07T15:53:39;1.80;99.90
32769;DHT22;23049;54.304;8.826;2022-12-07T15:56:05;1.80;99.90
32769;DHT22;23049;54.304;8.826;2022-12-07T15:58:31;1.80;99.90
32769;DHT22;23049;54.304;8.826;2022-12-07T16:00:57;1.70;99.90
32769;DHT22;23049;54.304;8.826;2022-12-07T16:03:22;1.70;99.90
32769;DHT22;23049;54.304;8.826;2022-12-07T16:05:48;1.60;99.90
32769;DHT22;23049;54.304;8.826;2022-12-07T16:08:14;1.60;99.90
32769;DHT22;23049;54.304;8.826;2022-12-07T16:10:39;1.50;99.90
32769;DHT22;23049;54.304;8.826;2022-12-07T16:13:11;1.50;99.90
32769;DHT22;23049;54.304;8.826;2022-12-07T16:15:38;1.50;99.90
32769;DHT22;23049;54.304;8.826;2022-12-07T16:18:04;1.50;99.90
32769;DHT22;23049;54.304;8.826;2022-12-07T16:20:29;1.50;99.90
32769;DHT22;23049;54.304;8.826;2022-12-07T16:22:55;1.40;99.90
32769;DHT22;23049;54.304;8.826;2022-12-07T16:25:20;1.40;99.90
32769;DHT22;23049;54.304;8.826;2022-12-07T16:27:46;1.40;99.90
32769;DHT22;23049;54.304;8.826;2022-12-07T16:30:12;1.40;99.90
32769;DHT22;23049;54.304;8.826;2022-12-07T16:32:37;1.40;99.90
32769;DHT22;23049;54.304;8.826;2022-12-07T16:35:03;1.40;99.90
32769;DHT22;23049;54.304;8.826;2022-12-07T16:37:29;1.50;99.90
32769;DHT22;23049;54.304;8.826;2022-12-07T16:39:54;1.50;99.90
32769;DHT22;23049;54.304;8.826;2022-12-07T16:42:19;1.50;99.90
32769;DHT22;23049;54.304;8.826;2022-12-07T16:44:45;1.50;99.90
32769;DHT22;23049;54.304;8.826;2022-12-07T16:47:11;1.60;99.90
32769;DHT22;23049;54.304;8.826;2022-12-07T16:49:36;1.70;99.90
32769;DHT22;23049;54.304;8.826;2022-12-07T16:52:02;1.70;99.90
32769;DHT22;23049;54.304;8.826;2022-12-07T16:54:27;1.80;99.90
32769;DHT22;23049;54.304;8.826;2022-12-07T16:56:56;1.80;99.90
32769;DHT22;23049;54.304;8.826;2022-12-07T16:59:21;1.80;99.90
32769;DHT22;23049;54.304;8.826;2022-12-07T17:01:47;1.80;99.90
32769;DHT22;23049;54.304;8.826;2022-12-07T17:04:12;1.70;99.90
32769;DHT22;23049;54.304;8.826;2022-12-07T17:06:38;1.70;99.90
32769;DHT22;23049;54.304;8.826;2022-12-07T17:09:04;1.80;99.90
32769;DHT22;23049;54.304;8.826;2022-12-07T17:11:34;1.80;99.90
32769;DHT22;23049;54.304;8.826;2022-12-07T17:13:59;1.80;99.90
32769;DHT22;23049;54.304;8.826;2022-12-07T17:16:43;1.80;99.90
32769;DHT22;23049;54.304;8.826;2022-12-07T17:19:13;1.80;99.90
32769;DHT22;23049;54.304;8.826;2022-12-07T17:21:39;1.90;99.90
32769;DHT22;23049;54.304;8.826;2022-12-07T17:24:06;2.00;99.90
32769;DHT22;23049;54.304;8.826;2022-12-07T17:26:32;2.00;99.90
32769;DHT22;23049;54.304;8.826;2022-12-07T17:28:58;2.10;99.90
32769;DHT22;23049;54.304;8.826;2022-12-07T17:31:23;2.10;99.90
32769;DHT22;23049;54.304;8.826;2022-12-07T17:33:49;2.00;99.90
32769;DHT22;23049;54.304;8.826;2022-12-07T17:36:16;2.00;99.90
32769;DHT22;23049;54.304;8.826;2022-12-07T17:38:42;2.00;99.90
32769;DHT22;23049;54.304;8.826;2022-12-07T17:41:08;2.00;99.90
32769;DHT22;23049;54.304;8.826;2022-12-07T17:43:34;2.00;99.90
32769;DHT22;23049;54.304;8.826;2022-12-07T17:46:04;2.00;99.90
32769;DHT22;23049;54.304;8.826;2022-12-07T17:48:30;1.80;99.90
32769;DHT22;23049;54.304;8.826;2022-12-07T17:50:59;1.70;99.90
32769;DHT22;23049;54.304;8.826;2022-12-07T17:53:43;1.70;99.90
32769;DHT22;23049;54.304;8.826;2022-12-07T17:56:08;1.60;99.90
32769;DHT22;23049;54.304;8.826;2022-12-07T17:58:34;1.70;99.90
32769;DHT22;23049;54.304;8.826;2022-12-07T18:00:59;1.80;99.90
32769;DHT22;23049;54.304;8.826;2022-12-07T18:03:24;1.70;99.90